createdAt,value
2022-07-31T00:01:30.026Z,5.50
2022-07-31T00:03:58.599Z,5.47
2022-07-31T00:06:25.909Z,4.68
2022-07-31T00:08:53.397Z,5.30
2022-07-31T00:11:20.803Z,5.30
2022-07-31T00:13:57.798Z,5.20
2022-07-31T00:16:26.322Z,5.05
2022-07-31T00:18:53.715Z,5.65
2022-07-31T00:21:21.039Z,5.63
2022-07-31T00:23:48.375Z,5.80
2022-07-31T00:26:15.704Z,5.78
2022-07-31T00:28:42.981Z,4.95
2022-07-31T00:31:10.288Z,6.00
2022-07-31T00:33:37.599Z,5.05
2022-07-31T00:36:05.056Z,5.70
2022-07-31T00:38:32.349Z,5.50
2022-07-31T00:40:59.797Z,5.00
2022-07-31T00:43:27.440Z,4.68
2022-07-31T00:45:59.466Z,4.63
2022-07-31T00:48:27.735Z,5.10
2022-07-31T00:50:55.347Z,6.10
2022-07-31T00:53:22.698Z,6.60
2022-07-31T00:55:51.995Z,7.38
2022-07-31T00:58:20.073Z,7.22
2022-07-31T01:00:47.945Z,7.18
2022-07-31T01:03:15.591Z,8.18
2022-07-31T01:05:42.899Z,7.65
2022-07-31T01:08:10.670Z,7.07
2022-07-31T01:10:56.626Z,7.20
2022-07-31T01:13:36.663Z,6.50
2022-07-31T01:16:05.896Z,7.57
2022-07-31T01:18:35.553Z,7.65
2022-07-31T01:21:05.173Z,7.65
2022-07-31T01:23:50.984Z,17.98
2022-07-31T01:26:35.849Z,7.45
2022-07-31T01:29:05.966Z,7.25
2022-07-31T01:31:53.488Z,7.82
2022-07-31T01:34:24.068Z,8.00
2022-07-31T01:36:58.137Z,8.82
2022-07-31T01:39:26.065Z,8.35
2022-07-31T01:42:03.446Z,9.88
2022-07-31T01:44:32.054Z,13.07
2022-07-31T01:46:59.619Z,11.25
2022-07-31T01:49:28.447Z,10.43
2022-07-31T01:51:56.773Z,9.10
2022-07-31T01:54:32.579Z,8.15
2022-07-31T01:57:00.199Z,9.13
2022-07-31T01:59:28.258Z,8.27
2022-07-31T02:01:59.088Z,7.07
2022-07-31T02:04:27.381Z,6.10
2022-07-31T02:06:55.845Z,5.30
2022-07-31T02:09:24.161Z,7.03
2022-07-31T02:11:54.461Z,7.68
2022-07-31T02:14:22.922Z,7.47
2022-07-31T02:16:50.473Z,7.95
2022-07-31T02:19:18.249Z,7.97
2022-07-31T02:21:45.620Z,7.30
2022-07-31T02:24:13.016Z,6.70
2022-07-31T02:26:41.135Z,6.80
2022-07-31T02:29:19.695Z,7.57
2022-07-31T02:31:48.478Z,7.22
2022-07-31T02:34:31.238Z,5.90
2022-07-31T02:36:58.899Z,7.57
2022-07-31T02:39:30.444Z,8.05
2022-07-31T02:42:01.435Z,7.40
2022-07-31T02:46:58.152Z,7.13
2022-07-31T02:49:25.775Z,7.13
2022-07-31T02:51:53.272Z,7.72
2022-07-31T02:54:20.708Z,8.27
2022-07-31T02:56:48.678Z,9.50
2022-07-31T02:59:15.970Z,8.95
2022-07-31T03:01:43.319Z,8.20
2022-07-31T03:04:10.692Z,8.20
2022-07-31T03:06:37.995Z,8.27
2022-07-31T03:09:05.409Z,8.70
2022-07-31T03:11:32.762Z,8.02
2022-07-31T03:14:01.962Z,8.43
2022-07-31T03:16:30.234Z,7.70
2022-07-31T03:18:58.405Z,8.18
2022-07-31T03:21:26.018Z,8.05
2022-07-31T03:23:53.313Z,7.35
2022-07-31T03:26:20.682Z,7.93
2022-07-31T03:28:48.827Z,7.00
2022-07-31T03:31:16.135Z,7.47
2022-07-31T03:33:43.451Z,6.50
2022-07-31T03:36:10.764Z,6.47
2022-07-31T03:38:40.721Z,6.20
2022-07-31T03:41:09.794Z,6.15
2022-07-31T03:43:44.388Z,5.65
2022-07-31T03:46:16.019Z,5.57
2022-07-31T03:48:43.322Z,5.25
2022-07-31T03:51:10.730Z,5.53
2022-07-31T03:53:38.817Z,5.28
2022-07-31T03:56:07.286Z,4.85
2022-07-31T03:58:35.088Z,5.13
2022-07-31T04:01:06.237Z,5.25
2022-07-31T04:03:38.371Z,5.20
2022-07-31T04:06:05.714Z,5.40
2022-07-31T04:08:34.050Z,5.50
2022-07-31T04:11:01.331Z,6.13
2022-07-31T04:13:28.659Z,5.60
2022-07-31T04:15:55.950Z,5.10
2022-07-31T04:18:23.225Z,4.68
2022-07-31T04:20:50.587Z,4.60
2022-07-31T04:23:17.938Z,5.38
2022-07-31T04:25:46.963Z,5.45
2022-07-31T04:28:14.279Z,4.53
2022-07-31T04:30:41.593Z,5.72
2022-07-31T04:33:08.909Z,5.32
2022-07-31T04:35:36.358Z,5.68
2022-07-31T04:38:03.681Z,5.38
2022-07-31T04:40:31.113Z,5.40
2022-07-31T04:42:58.425Z,4.38
2022-07-31T04:45:25.717Z,4.53
2022-07-31T04:47:53.008Z,4.40
2022-07-31T04:50:20.403Z,4.22
2022-07-31T04:52:47.695Z,4.60
2022-07-31T04:55:14.987Z,4.85
2022-07-31T04:57:42.398Z,4.90
2022-07-31T05:00:10.546Z,4.75
2022-07-31T05:02:38.254Z,4.50
2022-07-31T05:05:05.758Z,4.32
2022-07-31T05:07:34.604Z,4.28
2022-07-31T05:10:01.875Z,3.58
2022-07-31T05:12:29.185Z,3.45
2022-07-31T05:14:56.466Z,4.03
2022-07-31T05:17:23.730Z,4.15
2022-07-31T05:19:51.033Z,3.60
2022-07-31T05:22:18.954Z,3.28
2022-07-31T05:24:46.358Z,3.50
2022-07-31T05:27:13.711Z,3.03
2022-07-31T05:29:41.035Z,2.75
2022-07-31T05:32:08.372Z,2.70
2022-07-31T05:34:35.689Z,2.70
2022-07-31T05:37:03.129Z,2.30
2022-07-31T05:39:30.681Z,2.30
2022-07-31T05:41:58.362Z,2.40
2022-07-31T05:44:25.692Z,2.40
2022-07-31T05:49:19.519Z,2.35
2022-07-31T05:51:47.119Z,2.40
2022-07-31T05:54:15.012Z,2.15
2022-07-31T05:56:42.310Z,2.60
2022-07-31T05:59:09.953Z,2.42
2022-07-31T06:01:37.392Z,2.15
2022-07-31T06:04:04.834Z,1.95
2022-07-31T06:06:32.205Z,1.83
2022-07-31T06:09:04.141Z,2.10
2022-07-31T06:11:32.336Z,2.30
2022-07-31T06:13:59.738Z,2.10
2022-07-31T06:16:27.084Z,2.72
2022-07-31T06:18:54.370Z,1.90
2022-07-31T06:23:47.809Z,1.63
2022-07-31T06:26:15.451Z,1.67
2022-07-31T06:28:47.825Z,1.60
2022-07-31T06:31:20.537Z,1.52
2022-07-31T06:36:16.417Z,1.70
2022-07-31T06:38:43.788Z,1.40
2022-07-31T06:41:11.088Z,1.20
2022-07-31T06:43:38.430Z,0.95
2022-07-31T06:46:05.747Z,1.00
2022-07-31T06:48:33.022Z,0.70
2022-07-31T06:51:21.067Z,0.80
2022-07-31T06:53:47.580Z,0.80
2022-07-31T06:56:14.867Z,0.80
2022-07-31T06:58:42.173Z,0.70
2022-07-31T07:01:09.560Z,0.55
2022-07-31T07:03:36.876Z,0.65
2022-07-31T07:06:04.256Z,0.30
2022-07-31T07:08:31.558Z,0.40
2022-07-31T07:10:58.841Z,0.50
2022-07-31T07:13:45.597Z,0.30
2022-07-31T07:16:14.009Z,0.40
2022-07-31T07:18:41.514Z,0.40
2022-07-31T07:21:09.031Z,0.40
2022-07-31T07:23:36.416Z,0.60
2022-07-31T07:26:03.949Z,0.35
2022-07-31T07:28:31.481Z,0.60
2022-07-31T07:30:59.384Z,0.60
2022-07-31T07:33:41.710Z,0.40
2022-07-31T07:36:22.251Z,0.50
2022-07-31T07:38:51.938Z,0.35
2022-07-31T07:41:19.279Z,0.50
2022-07-31T07:43:51.708Z,0.70
2022-07-31T07:46:20.315Z,0.50
2022-07-31T07:48:47.689Z,0.40
2022-07-31T07:51:15.080Z,0.40
2022-07-31T07:53:42.434Z,0.60
2022-07-31T07:56:09.853Z,0.50
2022-07-31T07:58:37.169Z,0.50
2022-07-31T08:01:04.608Z,0.60
2022-07-31T08:03:48.885Z,0.60
2022-07-31T08:06:20.144Z,0.40
2022-07-31T08:08:47.928Z,0.32
2022-07-31T08:11:16.926Z,0.52
2022-07-31T08:13:49.790Z,0.50
2022-07-31T08:16:17.927Z,0.43
2022-07-31T08:18:45.347Z,0.50
2022-07-31T08:21:12.826Z,0.50
2022-07-31T08:23:40.245Z,0.40
2022-07-31T08:26:10.344Z,0.38
2022-07-31T08:28:39.089Z,0.35
2022-07-31T08:31:06.430Z,0.50
2022-07-31T08:33:33.775Z,0.43
2022-07-31T08:36:01.570Z,0.50
2022-07-31T08:38:29.056Z,0.40
2022-07-31T08:40:56.484Z,0.47
2022-07-31T08:44:01.724Z,0.40
2022-07-31T08:46:11.544Z,0.52
2022-07-31T08:48:41.095Z,0.57
2022-07-31T08:51:11.876Z,0.57
2022-07-31T08:53:39.817Z,0.60
2022-07-31T08:56:07.225Z,0.60
2022-07-31T08:58:39.015Z,0.55
2022-07-31T09:01:07.665Z,0.50
2022-07-31T09:03:36.255Z,0.57
2022-07-31T09:06:03.942Z,0.40
2022-07-31T09:08:34.850Z,0.50
2022-07-31T09:11:06.085Z,0.60
2022-07-31T09:13:35.023Z,0.40
2022-07-31T09:16:03.010Z,0.40
2022-07-31T09:18:30.472Z,0.55
2022-07-31T09:20:59.138Z,0.55
2022-07-31T09:23:26.880Z,0.43
2022-07-31T09:25:54.224Z,0.30
2022-07-31T09:28:25.075Z,0.40
2022-07-31T09:30:57.048Z,0.30
2022-07-31T09:33:24.613Z,0.40
2022-07-31T09:35:53.259Z,0.50
2022-07-31T09:38:21.015Z,0.40
2022-07-31T09:40:57.244Z,0.30
2022-07-31T09:43:31.378Z,0.38
2022-07-31T09:46:00.823Z,0.20
2022-07-31T09:48:28.571Z,0.40
2022-07-31T09:51:01.128Z,0.40
2022-07-31T09:53:28.868Z,0.40
2022-07-31T09:55:57.078Z,0.20
2022-07-31T09:58:24.654Z,0.40
2022-07-31T10:00:53.092Z,0.40
2022-07-31T10:03:20.862Z,0.40
2022-07-31T10:05:48.371Z,0.30
2022-07-31T10:08:17.356Z,0.28
2022-07-31T10:10:45.401Z,0.30
2022-07-31T10:13:15.560Z,0.40
2022-07-31T10:15:44.147Z,0.70
2022-07-31T10:18:11.665Z,0.30
2022-07-31T10:20:40.262Z,0.30
2022-07-31T10:23:10.758Z,0.20
2022-07-31T10:25:44.155Z,0.30
2022-07-31T10:28:22.087Z,0.32
2022-07-31T10:30:50.188Z,0.40
2022-07-31T10:33:42.352Z,0.28
2022-07-31T10:36:32.174Z,0.30
2022-07-31T10:38:59.467Z,0.40
2022-07-31T10:41:33.511Z,0.40
2022-07-31T10:44:02.330Z,0.30
2022-07-31T10:46:29.909Z,0.50
2022-07-31T10:48:57.854Z,0.20
2022-07-31T10:51:26.767Z,0.32
2022-07-31T10:53:56.065Z,0.30
2022-07-31T10:56:23.692Z,0.47
2022-07-31T10:58:54.822Z,0.40
2022-07-31T11:01:23.796Z,0.40
2022-07-31T11:03:54.175Z,0.30
2022-07-31T11:06:21.727Z,0.40
2022-07-31T11:08:52.329Z,0.43
2022-07-31T11:11:31.403Z,0.40
2022-07-31T11:14:00.328Z,0.35
2022-07-31T11:16:29.189Z,0.40
2022-07-31T11:19:02.460Z,0.35
2022-07-31T11:21:39.293Z,0.30
2022-07-31T11:24:17.551Z,0.40
2022-07-31T11:26:51.722Z,0.30
2022-07-31T11:29:59.798Z,0.45
2022-07-31T11:32:25.434Z,0.40
2022-07-31T11:34:56.983Z,0.50
2022-07-31T11:37:25.763Z,0.30
2022-07-31T11:39:54.102Z,0.40
2022-07-31T11:42:27.726Z,0.32
2022-07-31T11:45:11.341Z,0.47
2022-07-31T11:48:12.723Z,0.47
2022-07-31T11:53:07.086Z,0.30
2022-07-31T11:55:44.682Z,0.50
2022-07-31T11:58:12.054Z,0.40
2022-07-31T12:00:39.412Z,0.38
2022-07-31T12:03:09.429Z,0.30
2022-07-31T12:05:44.334Z,0.30
2022-07-31T12:08:12.047Z,0.40
2022-07-31T12:10:39.950Z,0.40
2022-07-31T12:13:15.693Z,0.30
2022-07-31T12:15:54.574Z,0.40
2022-07-31T12:18:21.869Z,0.63
2022-07-31T12:20:56.641Z,0.50
2022-07-31T12:23:40.336Z,0.55
2022-07-31T12:26:09.027Z,0.35
2022-07-31T12:28:36.321Z,0.40
2022-07-31T12:31:03.655Z,0.60
2022-07-31T12:33:40.704Z,0.85
2022-07-31T12:36:15.244Z,0.35
2022-07-31T12:38:48.049Z,0.40
2022-07-31T12:41:16.322Z,0.30
2022-07-31T12:43:50.093Z,0.43
2022-07-31T12:46:19.626Z,0.50
2022-07-31T12:48:46.904Z,0.50
2022-07-31T12:51:14.309Z,0.47
2022-07-31T12:53:41.587Z,0.40
2022-07-31T12:56:12.474Z,0.40
2022-07-31T13:01:07.153Z,0.43
2022-07-31T13:03:38.951Z,0.50
2022-07-31T13:06:14.328Z,0.38
2022-07-31T13:08:43.924Z,0.30
2022-07-31T13:11:11.570Z,0.40
2022-07-31T13:13:38.915Z,0.70
2022-07-31T13:16:06.437Z,0.60
2022-07-31T13:18:35.703Z,0.47
2022-07-31T13:21:02.994Z,0.40
2022-07-31T13:23:30.494Z,0.50
2022-07-31T13:25:58.935Z,0.45
2022-07-31T13:28:26.524Z,0.50
2022-07-31T13:30:55.353Z,0.43
2022-07-31T13:33:22.914Z,0.35
2022-07-31T13:35:50.188Z,0.50
2022-07-31T13:38:17.634Z,0.50
2022-07-31T13:41:03.933Z,0.40
2022-07-31T13:43:31.209Z,0.60
2022-07-31T13:45:58.474Z,0.50
2022-07-31T13:48:25.748Z,0.60
2022-07-31T13:50:53.426Z,0.50
2022-07-31T13:53:20.789Z,0.40
2022-07-31T13:55:50.187Z,2.45
2022-07-31T13:58:17.910Z,1.17
2022-07-31T14:00:45.252Z,0.70
2022-07-31T14:03:13.119Z,0.77
2022-07-31T14:05:45.661Z,0.80
2022-07-31T14:08:33.443Z,0.55
2022-07-31T14:11:02.728Z,0.70
2022-07-31T14:13:30.149Z,0.50
2022-07-31T14:15:57.574Z,0.65
2022-07-31T14:18:24.976Z,0.65
2022-07-31T14:20:52.445Z,0.63
2022-07-31T14:23:20.873Z,0.60
2022-07-31T14:26:03.010Z,0.65
2022-07-31T14:28:30.431Z,0.50
2022-07-31T14:30:57.718Z,0.77
2022-07-31T14:33:25.006Z,0.63
2022-07-31T14:35:54.546Z,0.70
2022-07-31T14:38:27.151Z,0.47
2022-07-31T14:40:55.142Z,0.60
2022-07-31T14:43:22.409Z,0.63
2022-07-31T14:45:51.848Z,0.60
2022-07-31T14:48:19.437Z,0.80
2022-07-31T14:50:46.707Z,0.82
2022-07-31T14:53:14.081Z,0.70
2022-07-31T14:55:41.854Z,0.70
2022-07-31T14:58:09.150Z,0.80
2022-07-31T15:00:36.430Z,0.75
2022-07-31T15:03:03.758Z,0.90
2022-07-31T15:06:40.805Z,0.82
2022-07-31T15:08:18.322Z,0.77
2022-07-31T15:10:45.647Z,0.98
2022-07-31T15:13:14.100Z,0.90
2022-07-31T15:15:41.440Z,1.17
2022-07-31T15:18:08.717Z,1.02
2022-07-31T15:20:36.685Z,0.90
2022-07-31T15:23:05.461Z,1.00
2022-07-31T15:25:33.122Z,1.02
2022-07-31T15:31:09.465Z,1.00
2022-07-31T15:33:36.758Z,0.90
2022-07-31T15:36:06.682Z,0.88
2022-07-31T15:38:33.975Z,1.25
2022-07-31T15:41:01.301Z,0.85
2022-07-31T15:43:28.680Z,0.95
2022-07-31T15:45:55.951Z,1.02
2022-07-31T15:48:24.740Z,0.60
2022-07-31T15:50:52.021Z,0.65
2022-07-31T15:53:22.016Z,0.65
2022-07-31T15:55:49.367Z,0.98
2022-07-31T15:58:16.670Z,0.70
2022-07-31T16:00:44.096Z,0.70
2022-07-31T16:03:11.502Z,0.70
2022-07-31T16:05:45.311Z,0.80
2022-07-31T16:08:31.560Z,0.77
2022-07-31T16:11:02.426Z,0.80
2022-07-31T16:13:31.387Z,1.00
2022-07-31T16:15:58.639Z,1.00
2022-07-31T16:18:25.913Z,0.80
2022-07-31T16:20:53.266Z,0.70
2022-07-31T16:23:20.556Z,0.90
2022-07-31T16:25:47.857Z,1.00
2022-07-31T16:28:15.219Z,0.77
2022-07-31T16:30:42.546Z,0.88
2022-07-31T16:33:09.853Z,0.80
2022-07-31T16:35:37.126Z,1.00
2022-07-31T16:38:04.570Z,1.00
2022-07-31T16:40:33.763Z,1.52
2022-07-31T16:43:02.111Z,1.25
2022-07-31T16:45:49.121Z,1.50
2022-07-31T16:48:16.478Z,1.08
2022-07-31T16:50:43.756Z,0.95
2022-07-31T16:53:13.521Z,1.00
2022-07-31T16:56:00.737Z,24.55
2022-07-31T16:58:29.134Z,1.08
2022-07-31T17:00:56.581Z,0.73
2022-07-31T17:03:58.601Z,0.88
2022-07-31T17:06:12.372Z,1.20
2022-07-31T17:08:39.728Z,1.70
2022-07-31T17:11:07.021Z,0.88
2022-07-31T17:13:34.310Z,0.80
2022-07-31T17:16:01.590Z,0.93
2022-07-31T17:18:28.862Z,1.45
2022-07-31T17:20:56.748Z,0.80
2022-07-31T17:23:43.029Z,1.10
2022-07-31T17:26:20.793Z,1.20
2022-07-31T17:28:49.523Z,1.20
2022-07-31T17:31:16.924Z,1.30
2022-07-31T17:33:58.566Z,1.85
2022-07-31T17:36:27.528Z,1.27
2022-07-31T17:38:54.840Z,1.10
2022-07-31T17:41:24.723Z,0.95
2022-07-31T17:46:22.146Z,1.15
2022-07-31T17:49:02.216Z,1.02
2022-07-31T17:51:29.537Z,0.90
2022-07-31T17:53:59.145Z,2.45
2022-07-31T17:56:27.387Z,0.98
2022-07-31T17:58:55.738Z,1.33
2022-07-31T18:01:27.160Z,0.90
2022-07-31T18:03:56.289Z,1.17
2022-07-31T18:06:23.666Z,0.98
2022-07-31T18:08:51.088Z,1.00
2022-07-31T18:11:19.922Z,1.15
2022-07-31T18:13:48.639Z,1.20
2022-07-31T18:16:19.447Z,1.17
2022-07-31T18:18:49.380Z,1.25
2022-07-31T18:21:18.650Z,1.08
2022-07-31T18:23:47.280Z,1.27
2022-07-31T18:26:15.070Z,1.17
2022-07-31T18:28:42.480Z,1.30
2022-07-31T18:31:15.535Z,1.23
2022-07-31T18:33:57.070Z,1.38
2022-07-31T18:36:24.427Z,1.52
2022-07-31T18:38:52.252Z,1.20
2022-07-31T18:41:20.803Z,1.05
2022-07-31T18:43:48.136Z,1.67
2022-07-31T18:46:15.905Z,2.33
2022-07-31T18:48:43.211Z,1.40
2022-07-31T18:51:10.602Z,1.20
2022-07-31T18:53:37.959Z,1.25
2022-07-31T18:56:05.429Z,1.42
2022-07-31T18:58:32.798Z,2.42
2022-07-31T19:01:00.160Z,1.80
2022-07-31T19:03:29.797Z,1.40
2022-07-31T19:05:58.633Z,1.40
2022-07-31T19:08:26.166Z,3.05
2022-07-31T19:10:53.748Z,1.33
2022-07-31T19:13:21.872Z,1.52
2022-07-31T19:15:50.329Z,1.30
2022-07-31T19:18:18.036Z,1.10
2022-07-31T19:20:58.963Z,1.17
2022-07-31T19:23:41.140Z,1.63
2022-07-31T19:26:08.749Z,1.40
2022-07-31T19:28:36.835Z,1.25
2022-07-31T19:31:04.530Z,1.55
2022-07-31T19:33:31.892Z,1.50
2022-07-31T19:36:02.208Z,1.60
2022-07-31T19:38:33.931Z,1.40
2022-07-31T19:43:28.907Z,1.75
2022-07-31T19:46:00.477Z,1.50
2022-07-31T19:48:44.118Z,1.30
2022-07-31T19:51:12.225Z,1.38
2022-07-31T19:53:39.901Z,1.30
2022-07-31T19:56:07.255Z,1.40
2022-07-31T19:58:35.279Z,1.60
2022-07-31T20:01:03.299Z,1.98
2022-07-31T20:03:30.730Z,1.50
2022-07-31T20:05:58.391Z,1.60
2022-07-31T20:08:25.835Z,1.52
2022-07-31T20:10:57.380Z,1.58
2022-07-31T20:13:24.682Z,1.52
2022-07-31T20:15:53.172Z,1.60
2022-07-31T20:18:27.364Z,1.70
2022-07-31T20:21:03.413Z,1.58
2022-07-31T20:23:31.289Z,1.58
2022-07-31T20:25:58.776Z,1.60
2022-07-31T20:28:26.123Z,1.52
2022-07-31T20:30:53.847Z,1.40
2022-07-31T20:33:21.464Z,1.42
2022-07-31T20:35:50.314Z,1.38
2022-07-31T20:38:21.427Z,1.40
2022-07-31T20:40:54.713Z,1.80
2022-07-31T20:43:26.762Z,1.50
2022-07-31T20:45:57.253Z,1.27
2022-07-31T20:48:26.593Z,1.00
2022-07-31T20:50:53.914Z,1.35
2022-07-31T20:53:22.127Z,1.80
2022-07-31T20:55:50.587Z,1.35
2022-07-31T20:58:18.895Z,1.40
2022-07-31T21:00:47.606Z,1.40
2022-07-31T21:03:15.295Z,1.48
2022-07-31T21:05:42.600Z,1.60
2022-07-31T21:08:11.226Z,1.77
2022-07-31T21:10:38.775Z,1.63
2022-07-31T21:13:06.075Z,1.42
2022-07-31T21:15:43.129Z,1.75
2022-07-31T21:18:13.105Z,1.80
2022-07-31T21:20:52.481Z,1.50
2022-07-31T21:23:24.215Z,1.20
2022-07-31T21:25:55.750Z,1.58
2022-07-31T21:28:23.636Z,1.40
2022-07-31T21:30:53.661Z,1.65
2022-07-31T21:33:21.109Z,1.42
2022-07-31T21:35:48.595Z,2.10
2022-07-31T21:38:16.092Z,1.50
2022-07-31T21:40:43.709Z,1.33
2022-07-31T21:43:11.143Z,1.88
2022-07-31T21:45:50.410Z,1.73
2022-07-31T21:48:25.033Z,1.60
2022-07-31T21:50:52.782Z,1.60
2022-07-31T21:53:20.068Z,1.58
2022-07-31T21:55:47.540Z,1.67
2022-07-31T21:58:14.867Z,3.20
2022-07-31T22:00:42.317Z,1.67
2022-07-31T22:03:09.703Z,1.80
2022-07-31T22:05:55.883Z,1.95
2022-07-31T22:08:23.316Z,1.80
2022-07-31T22:10:51.353Z,6.05
2022-07-31T22:13:19.466Z,2.00
2022-07-31T22:15:51.299Z,1.50
2022-07-31T22:18:32.495Z,1.83
2022-07-31T22:21:00.581Z,1.60
2022-07-31T22:23:28.664Z,1.70
2022-07-31T22:25:56.263Z,1.77
2022-07-31T22:28:24.099Z,1.73
2022-07-31T22:30:52.089Z,1.88
2022-07-31T22:33:19.879Z,1.70
2022-07-31T22:35:58.556Z,1.90
2022-07-31T22:38:28.390Z,1.85
2022-07-31T22:40:55.719Z,1.88
2022-07-31T22:44:10.352Z,1.98
2022-07-31T22:46:10.802Z,1.65
2022-07-31T22:48:40.552Z,2.05
2022-07-31T22:51:08.476Z,1.80
2022-07-31T22:53:36.632Z,1.85
2022-07-31T22:56:04.235Z,2.15
2022-07-31T22:58:31.556Z,1.80
2022-07-31T23:00:58.853Z,1.90
2022-07-31T23:03:26.238Z,2.08
2022-07-31T23:06:02.607Z,1.60
2022-07-31T23:08:41.062Z,1.70
2022-07-31T23:11:08.572Z,1.90
2022-07-31T23:13:35.899Z,2.10
2022-07-31T23:16:03.287Z,1.90
2022-07-31T23:18:30.606Z,2.00
2022-07-31T23:20:57.890Z,1.92
2022-07-31T23:23:25.174Z,2.10
2022-07-31T23:25:52.444Z,2.17
2022-07-31T23:28:19.726Z,2.22
2022-07-31T23:30:47.046Z,2.10
2022-07-31T23:33:16.513Z,2.05
2022-07-31T23:35:44.447Z,2.25
2022-07-31T23:38:11.841Z,2.45
2022-07-31T23:40:39.269Z,1.90
2022-07-31T23:43:06.813Z,2.30
2022-07-31T23:45:36.019Z,2.45
2022-07-31T23:48:04.109Z,2.45
2022-07-31T23:50:32.428Z,2.20
2022-07-31T23:52:59.903Z,2.58
2022-07-31T23:55:27.197Z,2.13
2022-07-31T23:57:54.662Z,2.30
